createdAt,value
2018-06-18T00:00:56.328Z,1008.8
2018-06-18T00:01:57.688Z,1008.8
2018-06-18T00:02:59.055Z,1008.8
2018-06-18T00:04:00.429Z,1008.8
2018-06-18T00:05:01.799Z,1008.8
2018-06-18T00:06:03.154Z,1008.8
2018-06-18T00:07:04.522Z,1008.9
2018-06-18T00:08:05.889Z,1008.9
2018-06-18T00:09:07.253Z,1008.9
2018-06-18T00:10:08.610Z,1008.9
2018-06-18T00:11:09.964Z,1008.9
2018-06-18T00:12:11.320Z,1008.9
2018-06-18T00:13:12.680Z,1008.9
2018-06-18T00:14:14.039Z,1008.9
2018-06-18T00:15:15.398Z,1008.9
2018-06-18T00:16:16.772Z,1008.9
2018-06-18T00:17:18.128Z,1008.9
2018-06-18T00:18:19.487Z,1008.9
2018-06-18T00:19:20.837Z,1009.0
2018-06-18T00:20:22.218Z,1008.9
2018-06-18T00:21:23.577Z,1008.9
2018-06-18T00:22:24.935Z,1008.9
2018-06-18T00:23:26.305Z,1008.9
2018-06-18T00:24:27.655Z,1008.9
2018-06-18T00:25:29.025Z,1008.8
2018-06-18T00:26:30.380Z,1008.8
2018-06-18T00:27:31.739Z,1008.8
2018-06-18T00:28:33.088Z,1008.8
2018-06-18T00:29:34.449Z,1008.8
2018-06-18T00:30:35.812Z,1008.8
2018-06-18T00:31:37.182Z,1008.8
2018-06-18T00:32:38.537Z,1008.8
2018-06-18T00:33:39.913Z,1008.8
2018-06-18T00:34:41.272Z,1008.8
2018-06-18T00:35:42.629Z,1008.9
2018-06-18T00:36:44.044Z,1008.9
2018-06-18T00:37:45.398Z,1008.9
2018-06-18T00:38:46.750Z,1008.9
2018-06-18T00:39:48.104Z,1008.8
2018-06-18T00:40:49.460Z,1008.9
2018-06-18T00:41:50.824Z,1008.8
2018-06-18T00:42:52.181Z,1008.9
2018-06-18T00:43:53.535Z,1008.9
2018-06-18T00:44:54.916Z,1008.9
2018-06-18T00:45:56.275Z,1008.9
2018-06-18T00:46:57.628Z,1008.9
2018-06-18T00:47:58.994Z,1008.9
2018-06-18T00:49:00.353Z,1008.9
2018-06-18T00:50:01.710Z,1008.9
2018-06-18T00:51:03.072Z,1008.9
2018-06-18T00:52:04.426Z,1008.9
2018-06-18T00:53:05.788Z,1008.9
2018-06-18T00:54:07.150Z,1008.9
2018-06-18T00:55:08.507Z,1008.9
2018-06-18T00:56:09.868Z,1009.0
2018-06-18T00:57:11.288Z,1009.0
2018-06-18T00:58:12.599Z,1009.0
2018-06-18T00:59:13.959Z,1009.0
2018-06-18T01:00:15.315Z,1009.1
2018-06-18T01:01:16.680Z,1009.1
2018-06-18T01:02:18.040Z,1009.1
2018-06-18T01:03:19.402Z,1009.1
2018-06-18T01:04:20.762Z,1009.1
2018-06-18T01:05:22.119Z,1009.1
2018-06-18T01:06:23.474Z,1009.1
2018-06-18T01:07:24.841Z,1009.1
2018-06-18T01:08:26.200Z,1009.1
2018-06-18T01:09:27.549Z,1009.1
2018-06-18T01:10:28.909Z,1009.0
2018-06-18T01:11:30.274Z,1009.1
2018-06-18T01:12:31.632Z,1009.1
2018-06-18T01:13:32.999Z,1009.0
2018-06-18T01:14:34.363Z,1009.1
2018-06-18T01:15:35.715Z,1009.1
2018-06-18T01:16:37.082Z,1009.0
2018-06-18T01:17:38.444Z,1009.1
2018-06-18T01:18:39.809Z,1009.0
2018-06-18T01:19:41.175Z,1009.0
2018-06-18T01:20:42.535Z,1009.0
2018-06-18T01:21:43.905Z,1009.0
2018-06-18T01:22:45.269Z,1009.0
2018-06-18T01:23:46.624Z,1009.0
2018-06-18T01:24:47.980Z,1009.0
2018-06-18T01:25:49.345Z,1009.0
2018-06-18T01:26:50.708Z,1008.9
2018-06-18T01:27:52.066Z,1008.9
2018-06-18T01:28:53.429Z,1008.9
2018-06-18T01:29:54.789Z,1008.9
2018-06-18T01:30:56.153Z,1008.9
2018-06-18T01:31:57.528Z,1008.9
2018-06-18T01:32:58.887Z,1008.9
2018-06-18T01:34:00.245Z,1009.0
2018-06-18T01:35:01.604Z,1009.0
2018-06-18T01:36:02.978Z,1009.0
2018-06-18T01:37:04.329Z,1009.0
2018-06-18T01:38:05.678Z,1009.0
2018-06-18T01:39:07.055Z,1009.0
2018-06-18T01:40:08.424Z,1009.0
2018-06-18T01:41:09.786Z,1009.0
2018-06-18T01:42:11.144Z,1009.0
2018-06-18T01:43:12.509Z,1009.0
2018-06-18T01:44:13.874Z,1009.0
2018-06-18T01:45:15.230Z,1009.0
2018-06-18T01:46:16.603Z,1009.1
2018-06-18T01:47:17.965Z,1009.1
2018-06-18T01:48:19.317Z,1009.1
2018-06-18T01:49:20.684Z,1009.1
2018-06-18T01:50:22.048Z,1009.2
2018-06-18T01:51:23.413Z,1009.2
2018-06-18T01:52:24.763Z,1009.2
2018-06-18T01:53:26.133Z,1009.2
2018-06-18T01:54:27.486Z,1009.2
2018-06-18T01:55:28.878Z,1009.2
2018-06-18T01:56:30.248Z,1009.2
2018-06-18T01:57:31.616Z,1009.1
2018-06-18T01:58:32.980Z,1009.1
2018-06-18T01:59:34.336Z,1009.1
2018-06-18T02:00:35.700Z,1009.1
2018-06-18T02:01:37.063Z,1009.1
2018-06-18T02:02:38.411Z,1009.1
2018-06-18T02:03:39.783Z,1009.1
2018-06-18T02:04:41.150Z,1009.1
2018-06-18T02:05:42.504Z,1009.1
2018-06-18T02:06:43.869Z,1009.1
2018-06-18T02:07:45.219Z,1009.1
2018-06-18T02:08:46.569Z,1009.1
2018-06-18T02:09:47.935Z,1009.0
2018-06-18T02:10:49.298Z,1009.1
2018-06-18T02:11:50.717Z,1009.0
2018-06-18T02:12:52.041Z,1009.0
2018-06-18T02:13:53.400Z,1009.1
2018-06-18T02:14:54.755Z,1009.0
2018-06-18T02:15:56.124Z,1009.0
2018-06-18T02:16:57.494Z,1009.1
2018-06-18T02:17:58.889Z,1009.0
2018-06-18T02:19:00.274Z,1009.0
2018-06-18T02:20:01.635Z,1009.0
2018-06-18T02:21:02.998Z,1009.0
2018-06-18T02:22:04.355Z,1009.0
2018-06-18T02:23:05.739Z,1008.9
2018-06-18T02:24:07.124Z,1009.0
2018-06-18T02:25:08.488Z,1009.0
2018-06-18T02:26:09.854Z,1008.9
2018-06-18T02:27:11.229Z,1008.9
2018-06-18T02:28:12.599Z,1008.9
2018-06-18T02:29:13.969Z,1008.9
2018-06-18T02:30:15.322Z,1009.0
2018-06-18T02:31:16.690Z,1009.0
2018-06-18T02:32:18.072Z,1009.0
2018-06-18T02:33:19.436Z,1009.0
2018-06-18T02:34:20.800Z,1008.9
2018-06-18T02:35:22.164Z,1009.0
2018-06-18T02:36:23.535Z,1009.0
2018-06-18T02:37:24.905Z,1008.9
2018-06-18T02:38:26.266Z,1008.9
2018-06-18T02:39:27.667Z,1008.9
2018-06-18T02:40:29.030Z,1008.9
2018-06-18T02:41:30.390Z,1008.8
2018-06-18T02:42:31.755Z,1008.8
2018-06-18T02:43:33.128Z,1008.8
2018-06-18T02:44:34.492Z,1008.8
2018-06-18T02:45:35.851Z,1008.7
2018-06-18T02:46:37.212Z,1008.7
2018-06-18T02:47:38.566Z,1008.7
2018-06-18T02:48:39.949Z,1008.7
2018-06-18T02:49:41.320Z,1008.7
2018-06-18T02:50:42.700Z,1008.7
2018-06-18T02:51:44.051Z,1008.7
2018-06-18T02:52:45.415Z,1008.8
2018-06-18T02:53:46.781Z,1008.8
2018-06-18T02:54:48.170Z,1008.7
2018-06-18T02:55:49.590Z,1008.7
2018-06-18T02:56:50.961Z,1008.6
2018-06-18T02:57:52.312Z,1008.6
2018-06-18T02:58:53.684Z,1008.6
2018-06-18T02:59:55.052Z,1008.6
2018-06-18T03:00:56.430Z,1008.8
2018-06-18T03:01:57.834Z,1008.8
2018-06-18T03:02:59.192Z,1008.8
2018-06-18T03:04:00.524Z,1008.9
2018-06-18T03:05:01.902Z,1009.0
2018-06-18T03:06:03.260Z,1008.9
2018-06-18T03:07:04.630Z,1009.0
2018-06-18T03:08:06.010Z,1009.0
2018-06-18T03:09:07.388Z,1009.1
2018-06-18T03:10:08.745Z,1009.0
2018-06-18T03:11:10.111Z,1009.0
2018-06-18T03:12:11.472Z,1009.0
2018-06-18T03:13:12.865Z,1009.0
2018-06-18T03:14:14.230Z,1009.0
2018-06-18T03:15:15.606Z,1008.9
2018-06-18T03:16:16.970Z,1009.0
2018-06-18T03:17:18.327Z,1009.0
2018-06-18T03:18:19.696Z,1009.0
2018-06-18T03:19:21.061Z,1009.0
2018-06-18T03:20:22.422Z,1009.0
2018-06-18T03:21:23.780Z,1009.1
2018-06-18T03:22:25.151Z,1009.1
2018-06-18T03:23:26.515Z,1009.2
2018-06-18T03:24:28.622Z,1009.2
2018-06-18T03:25:30.000Z,1009.3
2018-06-18T03:26:31.366Z,1009.3
2018-06-18T03:27:32.725Z,1009.4
2018-06-18T03:28:34.147Z,1009.3
2018-06-18T03:29:35.515Z,1009.4
2018-06-18T03:30:36.885Z,1009.4
2018-06-18T03:31:38.271Z,1009.4
2018-06-18T03:32:39.662Z,1009.4
2018-06-18T03:33:41.022Z,1009.3
2018-06-18T03:34:42.416Z,1009.4
2018-06-18T03:35:43.791Z,1009.3
2018-06-18T03:36:45.227Z,1009.3
2018-06-18T03:37:46.637Z,1009.3
2018-06-18T03:38:48.009Z,1009.4
2018-06-18T03:39:49.357Z,1009.3
2018-06-18T03:40:50.726Z,1009.3
2018-06-18T03:41:52.092Z,1009.3
2018-06-18T03:42:53.452Z,1009.3
2018-06-18T03:43:54.815Z,1009.3
2018-06-18T03:44:56.180Z,1009.3
2018-06-18T03:45:57.539Z,1009.4
2018-06-18T03:46:58.942Z,1009.4
2018-06-18T03:48:00.302Z,1009.4
2018-06-18T03:49:01.665Z,1009.4
2018-06-18T03:50:03.046Z,1009.4
2018-06-18T03:51:04.436Z,1009.4
2018-06-18T03:52:05.802Z,1009.4
2018-06-18T03:53:07.163Z,1009.4
2018-06-18T03:54:08.535Z,1009.4
2018-06-18T03:55:09.908Z,1009.4
2018-06-18T03:56:11.280Z,1009.4
2018-06-18T03:57:12.657Z,1009.4
2018-06-18T03:58:14.027Z,1009.4
2018-06-18T03:59:15.405Z,1009.4
2018-06-18T04:00:16.772Z,1009.3
2018-06-18T04:01:18.145Z,1009.3
2018-06-18T04:02:19.506Z,1009.4
2018-06-18T04:03:20.886Z,1009.4
2018-06-18T04:04:22.254Z,1009.4
2018-06-18T04:05:23.687Z,1009.3
2018-06-18T04:06:24.991Z,1009.4
2018-06-18T04:07:26.353Z,1009.4
2018-06-18T04:08:27.726Z,1009.4
2018-06-18T04:09:29.090Z,1009.4
2018-06-18T04:10:30.471Z,1009.4
2018-06-18T04:11:31.840Z,1009.4
2018-06-18T04:12:33.201Z,1009.4
2018-06-18T04:13:34.567Z,1009.4
2018-06-18T04:14:35.938Z,1009.4
2018-06-18T04:15:37.292Z,1009.4
2018-06-18T04:16:38.657Z,1009.4
2018-06-18T04:17:40.023Z,1009.4
2018-06-18T04:18:41.400Z,1009.3
2018-06-18T04:19:42.762Z,1009.3
2018-06-18T04:20:44.128Z,1009.4
2018-06-18T04:21:45.492Z,1009.4
2018-06-18T04:22:46.855Z,1009.4
2018-06-18T04:23:48.227Z,1009.5
2018-06-18T04:24:49.613Z,1009.4
2018-06-18T04:25:50.913Z,1009.5
2018-06-18T04:26:52.283Z,1009.4
2018-06-18T04:27:53.656Z,1009.4
2018-06-18T04:28:55.030Z,1009.4
2018-06-18T04:29:56.390Z,1009.5
2018-06-18T04:30:57.807Z,1009.4
2018-06-18T04:31:59.106Z,1009.5
2018-06-18T04:33:00.457Z,1009.5
2018-06-18T04:34:01.826Z,1009.5
2018-06-18T04:35:03.216Z,1009.5
2018-06-18T04:36:04.577Z,1009.5
2018-06-18T04:37:05.948Z,1009.5
2018-06-18T04:38:07.312Z,1009.5
2018-06-18T04:39:08.687Z,1009.5
2018-06-18T04:40:10.132Z,1009.5
2018-06-18T04:41:11.492Z,1009.6
2018-06-18T04:42:12.866Z,1009.6
2018-06-18T04:43:14.235Z,1009.6
2018-06-18T04:44:15.606Z,1009.6
2018-06-18T04:45:16.977Z,1009.6
2018-06-18T04:46:18.350Z,1009.5
2018-06-18T04:47:19.718Z,1009.5
2018-06-18T04:48:21.083Z,1009.6
2018-06-18T04:49:22.455Z,1009.6
2018-06-18T04:50:23.825Z,1009.6
2018-06-18T04:51:25.187Z,1009.6
2018-06-18T04:52:26.546Z,1009.6
2018-06-18T04:53:27.912Z,1009.6
2018-06-18T04:54:29.296Z,1009.6
2018-06-18T04:55:30.677Z,1009.6
2018-06-18T04:56:32.086Z,1009.6
2018-06-18T04:57:33.377Z,1009.6
2018-06-18T04:58:34.756Z,1009.6
2018-06-18T04:59:36.120Z,1009.6
2018-06-18T05:00:37.489Z,1009.6
2018-06-18T05:01:38.851Z,1009.6
2018-06-18T05:02:40.223Z,1009.6
2018-06-18T05:03:41.588Z,1009.6
2018-06-18T05:04:42.962Z,1009.6
2018-06-18T05:05:44.362Z,1009.5
2018-06-18T05:06:45.707Z,1009.5
2018-06-18T05:07:47.087Z,1009.5
2018-06-18T05:08:48.466Z,1009.6
2018-06-18T05:09:49.838Z,1009.6
2018-06-18T05:10:51.203Z,1009.6
2018-06-18T05:11:52.568Z,1009.6
2018-06-18T05:12:53.989Z,1009.6
2018-06-18T05:13:55.302Z,1009.6
2018-06-18T05:14:56.682Z,1009.6
2018-06-18T05:15:58.735Z,1009.6
2018-06-18T05:17:00.113Z,1009.7
2018-06-18T05:18:01.476Z,1009.7
2018-06-18T05:19:02.857Z,1009.7
2018-06-18T05:20:04.228Z,1009.8
2018-06-18T05:21:05.605Z,1009.8
2018-06-18T05:22:09.958Z,1009.8
2018-06-18T05:23:11.372Z,1009.7
2018-06-18T05:24:12.747Z,1009.8
2018-06-18T05:25:14.112Z,1009.7
2018-06-18T05:26:15.483Z,1009.8
2018-06-18T05:27:16.866Z,1009.8
2018-06-18T05:28:18.238Z,1009.8
2018-06-18T05:29:19.599Z,1009.8
2018-06-18T05:30:20.974Z,1009.8
2018-06-18T05:31:22.338Z,1009.9
2018-06-18T05:32:23.715Z,1009.9
2018-06-18T05:33:25.082Z,1009.9
2018-06-18T05:34:26.444Z,1009.9
2018-06-18T05:35:27.864Z,1009.9
2018-06-18T05:36:29.218Z,1009.9
2018-06-18T05:37:30.584Z,1009.9
2018-06-18T05:38:31.972Z,1009.9
2018-06-18T05:39:35.349Z,1009.9
2018-06-18T05:40:36.728Z,1009.9
2018-06-18T05:41:38.097Z,1010.0
2018-06-18T05:42:39.465Z,1010.0
2018-06-18T05:43:40.838Z,1009.9
2018-06-18T05:44:42.203Z,1009.9
2018-06-18T05:45:43.583Z,1009.9
2018-06-18T05:46:45.908Z,1010.0
2018-06-18T05:47:47.289Z,1009.9
2018-06-18T05:48:48.653Z,1010.0
2018-06-18T05:49:50.024Z,1010.1
2018-06-18T05:50:51.392Z,1010.1
2018-06-18T05:51:52.759Z,1010.1
2018-06-18T05:52:54.132Z,1010.1
2018-06-18T05:53:55.498Z,1010.1
2018-06-18T05:54:56.868Z,1010.1
2018-06-18T05:55:58.338Z,1010.1
2018-06-18T05:56:59.722Z,1010.1
2018-06-18T05:58:01.082Z,1010.0
2018-06-18T05:59:02.455Z,1010.1
2018-06-18T06:00:03.836Z,1010.1
2018-06-18T06:01:05.212Z,1010.2
2018-06-18T06:02:06.573Z,1010.1
2018-06-18T06:03:07.944Z,1010.2
2018-06-18T06:04:09.329Z,1010.2
2018-06-18T06:05:10.698Z,1010.3
2018-06-18T06:06:12.071Z,1010.3
2018-06-18T06:07:13.440Z,1010.3
2018-06-18T06:08:14.824Z,1010.4
2018-06-18T06:09:16.223Z,1010.4
2018-06-18T06:10:17.591Z,1010.4
2018-06-18T06:11:18.976Z,1010.4
2018-06-18T06:12:20.383Z,1010.5
2018-06-18T06:13:21.750Z,1010.5
2018-06-18T06:14:23.134Z,1010.4
2018-06-18T06:15:24.503Z,1010.6
2018-06-18T06:16:25.875Z,1011.0
2018-06-18T06:17:27.244Z,1010.5
2018-06-18T06:18:28.623Z,1010.4
2018-06-18T06:19:29.984Z,1010.7
2018-06-18T06:20:31.359Z,1010.5
2018-06-18T06:21:32.783Z,1010.7
2018-06-18T06:22:34.144Z,1010.8
2018-06-18T06:23:35.509Z,1010.7
2018-06-18T06:24:36.878Z,1010.6
2018-06-18T06:25:38.259Z,1010.5
2018-06-18T06:26:39.640Z,1010.4
2018-06-18T06:27:41.012Z,1010.5
2018-06-18T06:28:42.393Z,1010.6
2018-06-18T06:29:43.775Z,1010.6
2018-06-18T06:30:45.158Z,1010.6
2018-06-18T06:31:48.073Z,1010.6
2018-06-18T06:32:49.442Z,1010.7
2018-06-18T06:33:50.832Z,1010.7
2018-06-18T06:34:52.214Z,1010.5
2018-06-18T06:35:53.585Z,1010.5
2018-06-18T06:36:54.984Z,1010.7
2018-06-18T06:37:56.365Z,1010.6
2018-06-18T06:38:57.760Z,1010.6
2018-06-18T06:39:59.118Z,1010.6
2018-06-18T06:41:00.502Z,1010.6
2018-06-18T06:42:01.884Z,1011.1
2018-06-18T06:43:03.270Z,1010.9
2018-06-18T06:44:04.636Z,1011.0
2018-06-18T06:45:06.020Z,1010.8
2018-06-18T06:46:07.410Z,1010.9
2018-06-18T06:47:08.781Z,1011.2
2018-06-18T06:48:10.163Z,1011.5
2018-06-18T06:49:11.545Z,1011.0
2018-06-18T06:50:12.914Z,1011.0
2018-06-18T06:51:14.290Z,1010.9
2018-06-18T06:52:15.689Z,1010.8
2018-06-18T06:53:17.061Z,1011.0
2018-06-18T06:54:18.456Z,1010.8
2018-06-18T06:55:19.847Z,1010.8
2018-06-18T06:56:21.240Z,1010.9
2018-06-18T06:57:22.635Z,1010.8
2018-06-18T06:58:24.029Z,1010.6
2018-06-18T06:59:25.410Z,1010.5
2018-06-18T07:00:26.793Z,1011.1
2018-06-18T07:01:28.746Z,1011.1
2018-06-18T07:02:30.128Z,1010.8
2018-06-18T07:03:31.514Z,1011.0
2018-06-18T07:04:32.888Z,1011.0
2018-06-18T07:05:34.265Z,1010.9
2018-06-18T07:06:35.653Z,1011.0
2018-06-18T07:07:37.054Z,1011.0
2018-06-18T07:08:38.438Z,1010.9
2018-06-18T07:09:39.814Z,1011.0
2018-06-18T07:10:41.199Z,1011.1
2018-06-18T07:11:42.578Z,1011.2
2018-06-18T07:12:43.956Z,1011.1
2018-06-18T07:13:45.387Z,1011.1
2018-06-18T07:14:46.681Z,1011.2
2018-06-18T07:15:48.066Z,1011.2
2018-06-18T07:16:49.445Z,1011.0
2018-06-18T07:17:50.824Z,1011.1
2018-06-18T07:18:52.211Z,1011.3
2018-06-18T07:19:53.603Z,1011.3
2018-06-18T07:20:54.979Z,1011.1
2018-06-18T07:21:56.360Z,1011.3
2018-06-18T07:22:57.754Z,1011.2
2018-06-18T07:23:59.134Z,1011.3
2018-06-18T07:25:00.518Z,1011.2
2018-06-18T07:26:01.965Z,1011.2
2018-06-18T07:27:03.291Z,1011.2
2018-06-18T07:28:04.676Z,1011.3
2018-06-18T07:29:06.060Z,1011.4
2018-06-18T07:30:07.508Z,1011.4
2018-06-18T07:31:08.817Z,1011.3
2018-06-18T07:32:10.198Z,1011.4
2018-06-18T07:33:11.589Z,1011.3
2018-06-18T07:34:12.966Z,1011.4
2018-06-18T07:35:14.374Z,1011.4
2018-06-18T07:36:15.759Z,1011.4
2018-06-18T07:37:17.131Z,1011.4
2018-06-18T07:38:18.530Z,1011.4
2018-06-18T07:39:19.918Z,1010.8
2018-06-18T07:40:21.293Z,1010.8
2018-06-18T07:41:22.687Z,1011.0
2018-06-18T07:42:24.073Z,1011.5
2018-06-18T07:43:25.446Z,1011.7
2018-06-18T07:44:26.829Z,1011.6
2018-06-18T07:45:28.274Z,1011.9
2018-06-18T07:46:29.655Z,1011.9
2018-06-18T07:47:31.035Z,1011.8
2018-06-18T07:48:32.421Z,1011.7
2018-06-18T07:49:33.806Z,1011.6
2018-06-18T07:50:35.191Z,1011.7
2018-06-18T07:51:36.635Z,1011.8
2018-06-18T07:52:37.982Z,1011.9
2018-06-18T07:53:39.366Z,1011.7
2018-06-18T07:54:40.747Z,1011.0
2018-06-18T07:55:42.127Z,1011.9
2018-06-18T07:56:43.555Z,1011.7
2018-06-18T07:57:44.945Z,1012.0
2018-06-18T07:58:46.312Z,1011.9
2018-06-18T07:59:47.711Z,1012.1
2018-06-18T08:00:49.087Z,1010.4
2018-06-18T08:01:50.475Z,1012.4
2018-06-18T08:02:51.877Z,1012.0
2018-06-18T08:03:53.254Z,1010.3
2018-06-18T08:04:54.636Z,1012.2
2018-06-18T08:05:56.032Z,1012.0
2018-06-18T08:06:57.417Z,1012.1
2018-06-18T08:07:58.819Z,1012.2
2018-06-18T08:09:00.210Z,1012.4
2018-06-18T08:10:01.590Z,1012.5
2018-06-18T08:11:02.986Z,1013.0
2018-06-18T08:12:04.402Z,1012.6
2018-06-18T08:13:05.799Z,1010.3
2018-06-18T08:14:07.182Z,1010.6
2018-06-18T08:15:08.587Z,1010.8
2018-06-18T08:16:09.976Z,1010.5
2018-06-18T08:17:11.357Z,1012.8
2018-06-18T08:18:12.731Z,1012.7
2018-06-18T08:19:14.252Z,1011.8
2018-06-18T08:20:15.625Z,1010.1
2018-06-18T08:21:17.012Z,1010.4
2018-06-18T08:22:18.386Z,1010.5
2018-06-18T08:23:19.777Z,1012.8
2018-06-18T08:24:21.152Z,1012.1
2018-06-18T08:25:22.546Z,1013.1
2018-06-18T08:26:23.931Z,1013.0
2018-06-18T08:27:25.326Z,1011.3
2018-06-18T08:28:26.742Z,1012.0
2018-06-18T08:29:28.871Z,1011.8
2018-06-18T08:30:30.281Z,1012.0
2018-06-18T08:31:31.670Z,1012.6
2018-06-18T08:32:33.052Z,1012.8
2018-06-18T08:33:34.425Z,1011.0
2018-06-18T08:34:35.814Z,1010.7
2018-06-18T08:35:37.181Z,1010.5
2018-06-18T08:36:38.570Z,1010.3
2018-06-18T08:37:39.951Z,1010.4
2018-06-18T08:38:41.350Z,1010.6
2018-06-18T08:39:42.725Z,1011.7
2018-06-18T08:40:44.102Z,1013.0
2018-06-18T08:41:45.495Z,1013.4
2018-06-18T08:42:46.884Z,1013.1
2018-06-18T08:43:48.262Z,1012.8
2018-06-18T08:44:49.651Z,1013.7
2018-06-18T08:45:51.035Z,1013.5
2018-06-18T08:46:52.421Z,1013.4
2018-06-18T08:47:53.801Z,1013.4
2018-06-18T08:48:55.195Z,1011.6
2018-06-18T08:49:56.585Z,1013.2
2018-06-18T08:50:58.047Z,1010.7
2018-06-18T08:51:59.432Z,1011.1
2018-06-18T08:53:00.846Z,1011.2
2018-06-18T08:54:02.241Z,1012.4
2018-06-18T08:55:03.636Z,1011.6
2018-06-18T08:56:05.032Z,1011.1
2018-06-18T08:57:06.410Z,1013.5
2018-06-18T08:58:07.795Z,1014.1
2018-06-18T08:59:09.200Z,1013.7
2018-06-18T09:00:10.597Z,1013.0
2018-06-18T09:01:11.968Z,1013.3
2018-06-18T09:02:13.347Z,1012.9
2018-06-18T09:03:14.737Z,1013.4
2018-06-18T09:04:16.154Z,1012.9
2018-06-18T09:05:17.540Z,1014.1
2018-06-18T09:06:18.943Z,1012.4
2018-06-18T09:07:20.349Z,1013.0
2018-06-18T09:08:21.723Z,1012.7
2018-06-18T09:09:23.112Z,1012.9
2018-06-18T09:10:24.559Z,1013.3
2018-06-18T09:11:25.915Z,1013.2
2018-06-18T09:12:27.288Z,1013.1
2018-06-18T09:13:28.691Z,1012.9
2018-06-18T09:14:30.067Z,1013.0
2018-06-18T09:15:31.476Z,1009.9
2018-06-18T09:16:32.875Z,1010.9
2018-06-18T09:17:34.260Z,1013.5
2018-06-18T09:18:35.653Z,1010.9
2018-06-18T09:19:37.042Z,1013.0
2018-06-18T09:20:38.431Z,1010.1
2018-06-18T09:21:39.836Z,1013.3
2018-06-18T09:22:41.256Z,1011.7
2018-06-18T09:23:42.660Z,1010.1
2018-06-18T09:24:44.032Z,1010.2
2018-06-18T09:25:45.420Z,1010.3
2018-06-18T09:26:46.814Z,1010.2
2018-06-18T09:27:48.201Z,1010.2
2018-06-18T09:28:49.585Z,1011.2
2018-06-18T09:29:50.972Z,1010.8
2018-06-18T09:30:52.357Z,1010.3
2018-06-18T09:31:53.768Z,1010.1
2018-06-18T09:32:55.120Z,1010.3
2018-06-18T09:33:56.517Z,1011.2
2018-06-18T09:34:58.033Z,1011.1
2018-06-18T09:35:59.437Z,1010.3
2018-06-18T09:37:00.831Z,1010.2
2018-06-18T09:38:02.214Z,1010.2
2018-06-18T09:39:03.594Z,1010.2
2018-06-18T09:40:04.984Z,1010.4
2018-06-18T09:41:06.373Z,1010.5
2018-06-18T09:42:07.751Z,1010.6
2018-06-18T09:43:09.140Z,1010.6
2018-06-18T09:44:10.516Z,1010.6
2018-06-18T09:45:11.898Z,1010.5
2018-06-18T09:46:13.263Z,1010.3
2018-06-18T09:47:14.657Z,1010.3
2018-06-18T09:48:16.031Z,1010.4
2018-06-18T09:49:17.415Z,1010.6
2018-06-18T09:50:18.807Z,1012.1
2018-06-18T09:51:20.197Z,1012.2
2018-06-18T09:52:21.572Z,1012.1
2018-06-18T09:53:22.948Z,1011.9
2018-06-18T09:54:24.331Z,1011.9
2018-06-18T09:55:25.728Z,1011.7
2018-06-18T09:56:27.120Z,1011.6
2018-06-18T09:57:29.052Z,1011.3
2018-06-18T09:58:30.432Z,1011.1
2018-06-18T09:59:31.824Z,1010.7
2018-06-18T10:00:33.220Z,1011.0
2018-06-18T10:01:34.612Z,1011.1
2018-06-18T10:02:35.998Z,1010.2
2018-06-18T10:03:37.381Z,1011.5
2018-06-18T10:04:38.768Z,1011.4
2018-06-18T10:05:40.167Z,1010.9
2018-06-18T10:06:41.561Z,1011.4
2018-06-18T10:07:42.957Z,1011.3
2018-06-18T10:08:44.433Z,1011.0
2018-06-18T10:09:45.737Z,1011.1
2018-06-18T10:10:47.144Z,1009.7
2018-06-18T10:11:48.572Z,1009.7
2018-06-18T10:12:49.960Z,1009.8
2018-06-18T10:13:51.401Z,1010.2
2018-06-18T10:14:52.807Z,1010.6
2018-06-18T10:15:54.205Z,1011.5
2018-06-18T10:16:55.660Z,1011.6
2018-06-18T10:17:57.072Z,1010.9
2018-06-18T10:18:58.593Z,1010.7
2018-06-18T10:20:00.090Z,1010.1
2018-06-18T10:21:01.567Z,1010.3
2018-06-18T10:22:02.977Z,1010.4
2018-06-18T10:23:04.367Z,1010.7
2018-06-18T10:24:05.758Z,1010.5
2018-06-18T10:25:07.153Z,1010.9
2018-06-18T10:26:08.573Z,1010.2
2018-06-18T10:27:09.952Z,1010.8
2018-06-18T10:28:11.352Z,1010.7
2018-06-18T10:29:12.731Z,1011.1
2018-06-18T10:30:14.116Z,1010.8
2018-06-18T10:31:15.503Z,1009.7
2018-06-18T10:32:16.886Z,1010.7
2018-06-18T10:33:18.287Z,1010.9
2018-06-18T10:34:19.712Z,1010.9
2018-06-18T10:35:21.096Z,1010.6
2018-06-18T10:36:22.528Z,1011.0
2018-06-18T10:37:23.934Z,1010.9
2018-06-18T10:38:25.321Z,1011.2
2018-06-18T10:39:26.719Z,1010.9
2018-06-18T10:40:28.132Z,1010.6
2018-06-18T10:41:29.683Z,1011.1
2018-06-18T10:42:31.042Z,1010.1
2018-06-18T10:43:32.438Z,1009.9
2018-06-18T10:44:33.801Z,1010.2
2018-06-18T10:45:35.193Z,1010.3
2018-06-18T10:46:36.593Z,1010.4
2018-06-18T10:47:37.973Z,1010.5
2018-06-18T10:48:39.383Z,1010.4
2018-06-18T10:49:40.773Z,1010.4
2018-06-18T10:50:42.151Z,1010.6
2018-06-18T10:51:43.529Z,1010.8
2018-06-18T10:52:44.921Z,1011.8
2018-06-18T10:53:46.308Z,1011.1
2018-06-18T10:54:47.712Z,1011.3
2018-06-18T10:55:49.103Z,1011.4
2018-06-18T10:56:50.487Z,1011.4
2018-06-18T10:57:51.873Z,1011.3
2018-06-18T10:58:53.262Z,1011.3
2018-06-18T10:59:54.648Z,1011.5
2018-06-18T11:00:56.673Z,1011.5
2018-06-18T11:01:58.137Z,1011.6
2018-06-18T11:02:59.625Z,1010.9
2018-06-18T11:04:01.008Z,1010.7
2018-06-18T11:05:02.402Z,1010.5
2018-06-18T11:06:03.783Z,1010.5
2018-06-18T11:07:05.178Z,1010.5
2018-06-18T11:08:06.556Z,1010.5
2018-06-18T11:09:07.957Z,1010.7
2018-06-18T11:10:09.358Z,1011.5
2018-06-18T11:11:10.747Z,1011.7
2018-06-18T11:12:12.141Z,1011.0
2018-06-18T11:13:13.527Z,1010.6
2018-06-18T11:14:14.916Z,1010.7
2018-06-18T11:15:16.308Z,1010.3
2018-06-18T11:16:17.819Z,1010.8
2018-06-18T11:17:19.312Z,1010.6
2018-06-18T11:18:20.477Z,1010.7
2018-06-18T11:19:21.861Z,1010.7
2018-06-18T11:20:23.242Z,1010.5
2018-06-18T11:21:24.727Z,1010.7
2018-06-18T11:22:26.113Z,1011.7
2018-06-18T11:23:27.509Z,1011.3
2018-06-18T11:24:28.915Z,1010.3
2018-06-18T11:25:30.318Z,1010.3
2018-06-18T11:26:31.785Z,1010.3
2018-06-18T11:27:33.103Z,1011.6
2018-06-18T11:28:34.554Z,1011.5
2018-06-18T11:29:35.921Z,1010.6
2018-06-18T11:30:37.303Z,1009.9
2018-06-18T11:31:38.696Z,1011.1
2018-06-18T11:32:40.110Z,1010.6
2018-06-18T11:33:41.499Z,1010.8
2018-06-18T11:34:42.884Z,1010.9
2018-06-18T11:35:44.323Z,1010.7
2018-06-18T11:36:45.692Z,1010.9
2018-06-18T11:37:47.118Z,1010.7
2018-06-18T11:38:48.469Z,1010.6
2018-06-18T11:39:49.847Z,1010.7
2018-06-18T11:40:51.264Z,1010.8
2018-06-18T11:41:52.746Z,1009.3
2018-06-18T11:42:54.046Z,1009.9
2018-06-18T11:43:55.452Z,1010.1
2018-06-18T11:44:56.854Z,1009.6
2018-06-18T11:45:58.315Z,1010.6
2018-06-18T11:46:59.680Z,1010.6
2018-06-18T11:48:01.143Z,1010.6
2018-06-18T11:49:02.428Z,1010.5
2018-06-18T11:50:03.819Z,1009.4
2018-06-18T11:51:05.226Z,1010.6
2018-06-18T11:52:06.624Z,1009.3
2018-06-18T11:53:08.014Z,1009.5
2018-06-18T11:54:09.408Z,1009.3
2018-06-18T11:55:10.798Z,1009.6
2018-06-18T11:56:12.195Z,1009.7
2018-06-18T11:57:13.597Z,1010.5
2018-06-18T11:58:15.056Z,1010.9
2018-06-18T11:59:16.399Z,1010.7
2018-06-18T12:00:17.794Z,1010.6
2018-06-18T12:01:19.198Z,1010.4
2018-06-18T12:02:20.571Z,1009.5
2018-06-18T12:03:21.958Z,1009.7
2018-06-18T12:04:23.347Z,1009.7
2018-06-18T12:05:24.767Z,1010.1
2018-06-18T12:06:26.173Z,1011.1
2018-06-18T12:07:27.569Z,1011.1
2018-06-18T12:08:28.957Z,1011.0
2018-06-18T12:09:30.363Z,1011.0
2018-06-18T12:10:31.759Z,1010.9
2018-06-18T12:11:33.167Z,1010.7
2018-06-18T12:12:34.573Z,1010.8
2018-06-18T12:13:35.962Z,1009.3
2018-06-18T12:14:37.353Z,1009.4
2018-06-18T12:15:38.729Z,1009.9
2018-06-18T12:16:40.161Z,1010.1
2018-06-18T12:17:41.692Z,1010.4
2018-06-18T12:18:43.090Z,1011.4
2018-06-18T12:19:44.479Z,1010.1
2018-06-18T12:20:45.862Z,1009.9
2018-06-18T12:21:47.244Z,1009.8
2018-06-18T12:22:48.645Z,1009.7
2018-06-18T12:23:50.028Z,1009.8
2018-06-18T12:24:51.414Z,1009.7
2018-06-18T12:25:52.804Z,1010.1
2018-06-18T12:26:54.262Z,1010.2
2018-06-18T12:27:55.658Z,1010.2
2018-06-18T12:28:57.045Z,1010.1
2018-06-18T12:29:59.163Z,1010.2
2018-06-18T12:31:00.543Z,1010.2
2018-06-18T12:32:01.925Z,1010.2
2018-06-18T12:33:03.310Z,1010.2
2018-06-18T12:34:04.735Z,1010.2
2018-06-18T12:35:06.134Z,1010.2
2018-06-18T12:36:07.530Z,1010.1
2018-06-18T12:37:08.924Z,1010.2
2018-06-18T12:38:10.303Z,1010.2
2018-06-18T12:39:11.684Z,1010.3
2018-06-18T12:40:13.062Z,1010.3
2018-06-18T12:41:14.480Z,1010.3
2018-06-18T12:42:15.839Z,1010.3
2018-06-18T12:43:17.233Z,1010.2
2018-06-18T12:44:18.620Z,1010.2
2018-06-18T12:45:20.003Z,1010.3
2018-06-18T12:46:21.395Z,1010.4